sensor_id;sensor_type;location;lat;lon;timestamp;pressure;altitude;pressure_sealevel;temperature
69785;BMP280;14177;51.520;6.764;2024-01-15T00:01:22;100108.50;;;1.35
69785;BMP280;14177;51.520;6.764;2024-01-15T00:03:49;100099.97;;;1.36
69785;BMP280;14177;51.520;6.764;2024-01-15T00:06:16;100096.53;;;1.37
69785;BMP280;14177;51.520;6.764;2024-01-15T00:08:43;100083.75;;;1.37
69785;BMP280;14177;51.520;6.764;2024-01-15T00:11:10;100084.59;;;1.36
69785;BMP280;14177;51.520;6.764;2024-01-15T00:13:38;100084.59;;;1.36
69785;BMP280;14177;51.520;6.764;2024-01-15T00:16:05;100076.91;;;1.38
69785;BMP280;14177;51.520;6.764;2024-01-15T00:18:32;100075.22;;;1.38
69785;BMP280;14177;51.520;6.764;2024-01-15T00:20:59;100067.53;;;1.38
69785;BMP280;14177;51.520;6.764;2024-01-15T00:23:26;100065.81;;;1.40
69785;BMP280;14177;51.520;6.764;2024-01-15T00:25:53;100064.13;;;1.39
69785;BMP280;14177;51.520;6.764;2024-01-15T00:28:20;100076.88;;;1.41
69785;BMP280;14177;51.520;6.764;2024-01-15T00:30:47;100070.06;;;1.43
69785;BMP280;14177;51.520;6.764;2024-01-15T00:33:15;100064.91;;;1.46
69785;BMP280;14177;51.520;6.764;2024-01-15T00:35:42;100066.66;;;1.45
69785;BMP280;14177;51.520;6.764;2024-01-15T00:38:09;100064.91;;;1.46
69785;BMP280;14177;51.520;6.764;2024-01-15T00:40:36;100058.06;;;1.46
69785;BMP280;14177;51.520;6.764;2024-01-15T00:43:04;100058.97;;;1.45
69785;BMP280;14177;51.520;6.764;2024-01-15T00:45:31;100064.91;;;1.46
69785;BMP280;14177;51.520;6.764;2024-01-15T00:47:58;100062.34;;;1.47
69785;BMP280;14177;51.520;6.764;2024-01-15T00:50:29;100064.09;;;1.45
69785;BMP280;14177;51.520;6.764;2024-01-15T00:52:56;100052.97;;;1.45
69785;BMP280;14177;51.520;6.764;2024-01-15T00:55:23;100050.44;;;1.43
69785;BMP280;14177;51.520;6.764;2024-01-15T00:57:50;100057.25;;;1.43
69785;BMP280;14177;51.520;6.764;2024-01-15T01:00:17;100054.69;;;1.44
69785;BMP280;14177;51.520;6.764;2024-01-15T01:02:45;100045.31;;;1.45
69785;BMP280;14177;51.520;6.764;2024-01-15T01:05:12;100054.69;;;1.46
69785;BMP280;14177;51.520;6.764;2024-01-15T01:07:39;100049.56;;;1.46
69785;BMP280;14177;51.520;6.764;2024-01-15T01:10:06;100052.94;;;1.46
69785;BMP280;14177;51.520;6.764;2024-01-15T01:12:33;100045.28;;;1.46
69785;BMP280;14177;51.520;6.764;2024-01-15T01:15:01;100046.97;;;1.47
69785;BMP280;14177;51.520;6.764;2024-01-15T01:17:28;100043.59;;;1.47
69785;BMP280;14177;51.520;6.764;2024-01-15T01:19:55;100036.75;;;1.47
69785;BMP280;14177;51.520;6.764;2024-01-15T01:22:22;100042.72;;;1.48
69785;BMP280;14177;51.520;6.764;2024-01-15T01:24:49;100040.13;;;1.49
69785;BMP280;14177;51.520;6.764;2024-01-15T01:27:16;100023.97;;;1.46
69785;BMP280;14177;51.520;6.764;2024-01-15T01:29:43;100034.19;;;1.47
69785;BMP280;14177;51.520;6.764;2024-01-15T01:32:10;100031.66;;;1.44
69785;BMP280;14177;51.520;6.764;2024-01-15T01:34:41;100040.16;;;1.46
69785;BMP280;14177;51.520;6.764;2024-01-15T01:37:11;100041.06;;;1.45
69785;BMP280;14177;51.520;6.764;2024-01-15T01:39:42;100029.91;;;1.49
69785;BMP280;14177;51.520;6.764;2024-01-15T01:42:10;100031.63;;;1.49
69785;BMP280;14177;51.520;6.764;2024-01-15T01:44:38;100037.56;;;1.49
69785;BMP280;14177;51.520;6.764;2024-01-15T01:47:05;100029.91;;;1.49
69785;BMP280;14177;51.520;6.764;2024-01-15T01:49:33;100046.13;;;1.48
69785;BMP280;14177;51.520;6.764;2024-01-15T01:52:05;100047.81;;;1.51
69785;BMP280;14177;51.520;6.764;2024-01-15T01:54:35;100048.66;;;1.51
69785;BMP280;14177;51.520;6.764;2024-01-15T01:57:04;100047.81;;;1.52
69785;BMP280;14177;51.520;6.764;2024-01-15T01:59:34;100050.38;;;1.52
69785;BMP280;14177;51.520;6.764;2024-01-15T02:02:03;100050.38;;;1.52
69785;BMP280;14177;51.520;6.764;2024-01-15T02:04:32;100050.38;;;1.51
69785;BMP280;14177;51.520;6.764;2024-01-15T02:07:00;100044.41;;;1.52
69785;BMP280;14177;51.520;6.764;2024-01-15T02:09:27;100041.00;;;1.50
69785;BMP280;14177;51.520;6.764;2024-01-15T02:11:54;100050.38;;;1.52
69785;BMP280;14177;51.520;6.764;2024-01-15T02:14:21;100051.22;;;1.53
69785;BMP280;14177;51.520;6.764;2024-01-15T02:16:49;100049.50;;;1.55
69785;BMP280;14177;51.520;6.764;2024-01-15T02:19:17;100045.25;;;1.52
69785;BMP280;14177;51.520;6.764;2024-01-15T02:21:45;100049.53;;;1.50
69785;BMP280;14177;51.520;6.764;2024-01-15T02:24:12;100046.09;;;1.53
69785;BMP280;14177;51.520;6.764;2024-01-15T02:26:39;100038.41;;;1.51
69785;BMP280;14177;51.520;6.764;2024-01-15T02:29:07;100037.59;;;1.51
69785;BMP280;14177;51.520;6.764;2024-01-15T02:31:37;100038.41;;;1.51
69785;BMP280;14177;51.520;6.764;2024-01-15T02:34:05;100048.66;;;1.51
69785;BMP280;14177;51.520;6.764;2024-01-15T02:36:32;100046.94;;;1.53
69785;BMP280;14177;51.520;6.764;2024-01-15T02:38:59;100052.06;;;1.53
69785;BMP280;14177;51.520;6.764;2024-01-15T02:41:26;100051.22;;;1.53
69785;BMP280;14177;51.520;6.764;2024-01-15T02:43:53;100046.94;;;1.53
69785;BMP280;14177;51.520;6.764;2024-01-15T02:46:20;100049.50;;;1.53
69785;BMP280;14177;51.520;6.764;2024-01-15T02:48:46;100042.66;;;1.55
69785;BMP280;14177;51.520;6.764;2024-01-15T02:51:14;100032.44;;;1.57
69785;BMP280;14177;51.520;6.764;2024-01-15T02:53:41;100039.22;;;1.59
69785;BMP280;14177;51.520;6.764;2024-01-15T02:56:08;100035.81;;;1.60
69785;BMP280;14177;51.520;6.764;2024-01-15T02:58:35;100033.25;;;1.57
69785;BMP280;14177;51.520;6.764;2024-01-15T03:01:02;100034.97;;;1.58
69785;BMP280;14177;51.520;6.764;2024-01-15T03:03:29;100028.16;;;1.56
69785;BMP280;14177;51.520;6.764;2024-01-15T03:05:56;100034.13;;;1.58
69785;BMP280;14177;51.520;6.764;2024-01-15T03:08:23;100034.13;;;1.58
69785;BMP280;14177;51.520;6.764;2024-01-15T03:10:50;100029.00;;;1.58
69785;BMP280;14177;51.520;6.764;2024-01-15T03:13:17;100032.41;;;1.55
69785;BMP280;14177;51.520;6.764;2024-01-15T03:15:46;100029.91;;;1.49
69785;BMP280;14177;51.520;6.764;2024-01-15T03:18:13;100035.03;;;1.49
69785;BMP280;14177;51.520;6.764;2024-01-15T03:20:40;100024.78;;;1.49
69785;BMP280;14177;51.520;6.764;2024-01-15T03:23:07;100032.47;;;1.51
69785;BMP280;14177;51.520;6.764;2024-01-15T03:25:34;100039.31;;;1.49
69785;BMP280;14177;51.520;6.764;2024-01-15T03:28:00;100029.94;;;1.48
69785;BMP280;14177;51.520;6.764;2024-01-15T03:30:27;100036.75;;;1.47
69785;BMP280;14177;51.520;6.764;2024-01-15T03:32:55;100034.19;;;1.46
69785;BMP280;14177;51.520;6.764;2024-01-15T03:35:22;100032.50;;;1.45
69785;BMP280;14177;51.520;6.764;2024-01-15T03:37:49;100033.38;;;1.45
69785;BMP280;14177;51.520;6.764;2024-01-15T03:40:16;100031.69;;;1.41
69785;BMP280;14177;51.520;6.764;2024-01-15T03:42:47;100041.03;;;1.44
69785;BMP280;14177;51.520;6.764;2024-01-15T03:45:14;100026.56;;;1.44
69785;BMP280;14177;51.520;6.764;2024-01-15T03:47:41;100028.25;;;1.45
69785;BMP280;14177;51.520;6.764;2024-01-15T03:50:09;100032.50;;;1.45
69785;BMP280;14177;51.520;6.764;2024-01-15T03:52:36;100029.91;;;1.46
69785;BMP280;14177;51.520;6.764;2024-01-15T03:55:04;100029.91;;;1.46
69785;BMP280;14177;51.520;6.764;2024-01-15T03:57:31;100033.38;;;1.45
69785;BMP280;14177;51.520;6.764;2024-01-15T03:59:58;100029.09;;;1.46
69785;BMP280;14177;51.520;6.764;2024-01-15T04:02:25;100027.34;;;1.46
69785;BMP280;14177;51.520;6.764;2024-01-15T04:04:52;100017.13;;;1.46
69785;BMP280;14177;51.520;6.764;2024-01-15T04:07:19;100011.19;;;1.44
69785;BMP280;14177;51.520;6.764;2024-01-15T04:09:46;100011.22;;;1.41
69785;BMP280;14177;51.520;6.764;2024-01-15T04:12:13;100006.09;;;1.41
69785;BMP280;14177;51.520;6.764;2024-01-15T04:14:40;100004.41;;;1.37
69785;BMP280;14177;51.520;6.764;2024-01-15T04:17:07;99997.59;;;1.36
69785;BMP280;14177;51.520;6.764;2024-01-15T04:19:34;100002.72;;;1.32
69785;BMP280;14177;51.520;6.764;2024-01-15T04:22:01;100002.75;;;1.30
69785;BMP280;14177;51.520;6.764;2024-01-15T04:24:28;99993.34;;;1.32
69785;BMP280;14177;51.520;6.764;2024-01-15T04:26:55;99989.06;;;1.34
69785;BMP280;14177;51.520;6.764;2024-01-15T04:29:23;99989.91;;;1.35
69785;BMP280;14177;51.520;6.764;2024-01-15T04:31:49;99982.25;;;1.36
69785;BMP280;14177;51.520;6.764;2024-01-15T04:34:17;99982.22;;;1.39
69785;BMP280;14177;51.520;6.764;2024-01-15T04:36:44;99977.09;;;1.39
69785;BMP280;14177;51.520;6.764;2024-01-15T04:39:11;99982.19;;;1.41
69785;BMP280;14177;51.520;6.764;2024-01-15T04:41:38;99983.91;;;1.40
69785;BMP280;14177;51.520;6.764;2024-01-15T04:44:05;99978.78;;;1.39
69785;BMP280;14177;51.520;6.764;2024-01-15T04:46:32;99985.63;;;1.40
69785;BMP280;14177;51.520;6.764;2024-01-15T04:48:59;99980.50;;;1.37
69785;BMP280;14177;51.520;6.764;2024-01-15T04:51:26;99976.25;;;1.37
69785;BMP280;14177;51.520;6.764;2024-01-15T04:53:53;99987.28;;;1.44
69785;BMP280;14177;51.520;6.764;2024-01-15T04:56:20;99976.22;;;1.43
69785;BMP280;14177;51.520;6.764;2024-01-15T04:58:47;99972.81;;;1.43
69785;BMP280;14177;51.520;6.764;2024-01-15T05:01:16;99974.53;;;1.42
69785;BMP280;14177;51.520;6.764;2024-01-15T05:03:44;99976.22;;;1.42
69785;BMP280;14177;51.520;6.764;2024-01-15T05:06:11;99962.56;;;1.43
69785;BMP280;14177;51.520;6.764;2024-01-15T05:08:38;99968.56;;;1.40
69785;BMP280;14177;51.520;6.764;2024-01-15T05:11:05;99961.75;;;1.39
69785;BMP280;14177;51.520;6.764;2024-01-15T05:13:32;99959.19;;;1.38
69785;BMP280;14177;51.520;6.764;2024-01-15T05:15:59;99965.16;;;1.38
69785;BMP280;14177;51.520;6.764;2024-01-15T05:18:26;99958.34;;;1.40
69785;BMP280;14177;51.520;6.764;2024-01-15T05:20:53;99958.31;;;1.42
69785;BMP280;14177;51.520;6.764;2024-01-15T05:23:20;99948.06;;;1.43
69785;BMP280;14177;51.520;6.764;2024-01-15T05:25:47;99946.38;;;1.41
69785;BMP280;14177;51.520;6.764;2024-01-15T05:28:14;99948.09;;;1.40
69785;BMP280;14177;51.520;6.764;2024-01-15T05:30:41;99952.31;;;1.43
69785;BMP280;14177;51.520;6.764;2024-01-15T05:33:08;99948.94;;;1.42
69785;BMP280;14177;51.520;6.764;2024-01-15T05:35:35;99949.78;;;1.44
69785;BMP280;14177;51.520;6.764;2024-01-15T05:38:03;99952.31;;;1.46
69785;BMP280;14177;51.520;6.764;2024-01-15T05:40:30;99943.78;;;1.44
69785;BMP280;14177;51.520;6.764;2024-01-15T05:42:57;99945.50;;;1.43
69785;BMP280;14177;51.520;6.764;2024-01-15T05:45:26;99942.09;;;1.43
69785;BMP280;14177;51.520;6.764;2024-01-15T05:47:53;99945.53;;;1.40
69785;BMP280;14177;51.520;6.764;2024-01-15T05:50:20;99948.91;;;1.44
69785;BMP280;14177;51.520;6.764;2024-01-15T05:52:47;99954.88;;;1.44
69785;BMP280;14177;51.520;6.764;2024-01-15T05:55:14;99954.84;;;1.47
69785;BMP280;14177;51.520;6.764;2024-01-15T05:57:41;99954.00;;;1.47
69785;BMP280;14177;51.520;6.764;2024-01-15T06:00:08;99947.19;;;1.46
69785;BMP280;14177;51.520;6.764;2024-01-15T06:02:37;99940.31;;;1.49
69785;BMP280;14177;51.520;6.764;2024-01-15T06:05:05;99945.44;;;1.51
69785;BMP280;14177;51.520;6.764;2024-01-15T06:07:35;99954.78;;;1.53
69785;BMP280;14177;51.520;6.764;2024-01-15T06:10:04;99947.94;;;1.55
69785;BMP280;14177;51.520;6.764;2024-01-15T06:12:31;99943.69;;;1.56
69785;BMP280;14177;51.520;6.764;2024-01-15T06:15:00;99954.75;;;1.59
69785;BMP280;14177;51.520;6.764;2024-01-15T06:17:27;99934.28;;;1.59
69785;BMP280;14177;51.520;6.764;2024-01-15T06:19:54;99938.53;;;1.60
69785;BMP280;14177;51.520;6.764;2024-01-15T06:22:21;99933.38;;;1.65
69785;BMP280;14177;51.520;6.764;2024-01-15T06:24:48;99923.16;;;1.65
69785;BMP280;14177;51.520;6.764;2024-01-15T06:27:15;99926.53;;;1.65
69785;BMP280;14177;51.520;6.764;2024-01-15T06:29:45;99927.38;;;1.67
69785;BMP280;14177;51.520;6.764;2024-01-15T06:32:17;99925.69;;;1.68
69785;BMP280;14177;51.520;6.764;2024-01-15T06:34:44;99927.38;;;1.67
69785;BMP280;14177;51.520;6.764;2024-01-15T06:37:11;99919.69;;;1.69
69785;BMP280;14177;51.520;6.764;2024-01-15T06:39:38;99917.09;;;1.75
69785;BMP280;14177;51.520;6.764;2024-01-15T06:42:05;99919.66;;;1.75
69785;BMP280;14177;51.520;6.764;2024-01-15T06:44:32;99918.75;;;1.77
69785;BMP280;14177;51.520;6.764;2024-01-15T06:46:59;99924.75;;;1.78
69785;BMP280;14177;51.520;6.764;2024-01-15T06:49:29;99917.03;;;1.79
69785;BMP280;14177;51.520;6.764;2024-01-15T06:51:56;99920.47;;;1.80
69785;BMP280;14177;51.520;6.764;2024-01-15T06:54:24;99917.06;;;1.76
69785;BMP280;14177;51.520;6.764;2024-01-15T06:56:51;99927.31;;;1.73
69785;BMP280;14177;51.520;6.764;2024-01-15T06:59:17;99929.06;;;1.73
69785;BMP280;14177;51.520;6.764;2024-01-15T07:01:46;99933.34;;;1.71
69785;BMP280;14177;51.520;6.764;2024-01-15T07:04:13;99932.47;;;1.72
69785;BMP280;14177;51.520;6.764;2024-01-15T07:06:40;99929.06;;;1.70
69785;BMP280;14177;51.520;6.764;2024-01-15T07:09:07;99934.16;;;1.71
69785;BMP280;14177;51.520;6.764;2024-01-15T07:11:35;99929.06;;;1.71
69785;BMP280;14177;51.520;6.764;2024-01-15T07:14:02;99936.75;;;1.70
69785;BMP280;14177;51.520;6.764;2024-01-15T07:16:30;99930.78;;;1.69
69785;BMP280;14177;51.520;6.764;2024-01-15T07:19:04;99931.59;;;1.71
69785;BMP280;14177;51.520;6.764;2024-01-15T07:21:31;99926.50;;;1.71
69785;BMP280;14177;51.520;6.764;2024-01-15T07:23:58;99929.06;;;1.71
69785;BMP280;14177;51.520;6.764;2024-01-15T07:26:25;99931.59;;;1.71
69785;BMP280;14177;51.520;6.764;2024-01-15T07:28:52;99929.06;;;1.73
69785;BMP280;14177;51.520;6.764;2024-01-15T07:31:19;99930.78;;;1.71
69785;BMP280;14177;51.520;6.764;2024-01-15T07:33:46;99926.53;;;1.70
69785;BMP280;14177;51.520;6.764;2024-01-15T07:36:14;99925.69;;;1.66
69785;BMP280;14177;51.520;6.764;2024-01-15T07:38:41;99927.38;;;1.67
69785;BMP280;14177;51.520;6.764;2024-01-15T07:41:08;99930.81;;;1.68
69785;BMP280;14177;51.520;6.764;2024-01-15T07:43:35;99925.69;;;1.68
69785;BMP280;14177;51.520;6.764;2024-01-15T07:46:02;99918.03;;;1.65
69785;BMP280;14177;51.520;6.764;2024-01-15T07:48:29;99918.88;;;1.62
69785;BMP280;14177;51.520;6.764;2024-01-15T07:50:57;99926.63;;;1.58
69785;BMP280;14177;51.520;6.764;2024-01-15T07:53:24;99923.25;;;1.53
69785;BMP280;14177;51.520;6.764;2024-01-15T07:55:51;99932.63;;;1.49
69785;BMP280;14177;51.520;6.764;2024-01-15T07:58:18;99925.00;;;1.48
69785;BMP280;14177;51.520;6.764;2024-01-15T08:00:45;99931.81;;;1.46
69785;BMP280;14177;51.520;6.764;2024-01-15T08:03:12;99936.91;;;1.47
69785;BMP280;14177;51.520;6.764;2024-01-15T08:05:40;99934.34;;;1.47
69785;BMP280;14177;51.520;6.764;2024-01-15T08:08:07;99932.72;;;1.43
69785;BMP280;14177;51.520;6.764;2024-01-15T08:10:34;99933.56;;;1.44
69785;BMP280;14177;51.520;6.764;2024-01-15T08:13:01;99937.00;;;1.40
69785;BMP280;14177;51.520;6.764;2024-01-15T08:15:28;99928.44;;;1.41
69785;BMP280;14177;51.520;6.764;2024-01-15T08:17:57;99929.28;;;1.43
69785;BMP280;14177;51.520;6.764;2024-01-15T08:20:25;99935.28;;;1.43
69785;BMP280;14177;51.520;6.764;2024-01-15T08:22:53;99927.59;;;1.43
69785;BMP280;14177;51.520;6.764;2024-01-15T08:25:20;99932.66;;;1.46
69785;BMP280;14177;51.520;6.764;2024-01-15T08:27:47;99929.25;;;1.47
69785;BMP280;14177;51.520;6.764;2024-01-15T08:30:15;99940.34;;;1.48
69785;BMP280;14177;51.520;6.764;2024-01-15T08:32:42;99948.03;;;1.48
69785;BMP280;14177;51.520;6.764;2024-01-15T08:35:10;99943.75;;;1.48
69785;BMP280;14177;51.520;6.764;2024-01-15T08:37:38;99947.19;;;1.46
69785;BMP280;14177;51.520;6.764;2024-01-15T08:40:06;99946.41;;;1.39
69785;BMP280;14177;51.520;6.764;2024-01-15T08:42:33;99945.59;;;1.31
69785;BMP280;14177;51.520;6.764;2024-01-15T08:45:00;99941.41;;;1.21
69785;BMP280;14177;51.520;6.764;2024-01-15T08:47:28;99949.97;;;1.15
69785;BMP280;14177;51.520;6.764;2024-01-15T08:49:55;99946.59;;;1.10
69785;BMP280;14177;51.520;6.764;2024-01-15T08:52:23;99956.84;;;1.04
69785;BMP280;14177;51.520;6.764;2024-01-15T08:54:50;99953.44;;;1.02
69785;BMP280;14177;51.520;6.764;2024-01-15T08:57:17;99955.19;;;0.97
69785;BMP280;14177;51.520;6.764;2024-01-15T08:59:44;99949.22;;;0.99
69785;BMP280;14177;51.520;6.764;2024-01-15T09:02:12;99948.38;;;0.96
69785;BMP280;14177;51.520;6.764;2024-01-15T09:04:39;99955.19;;;0.94
69785;BMP280;14177;51.520;6.764;2024-01-15T09:07:07;99953.50;;;0.90
69785;BMP280;14177;51.520;6.764;2024-01-15T09:09:34;99962.03;;;0.92
69785;BMP280;14177;51.520;6.764;2024-01-15T09:12:02;99955.22;;;0.91
69785;BMP280;14177;51.520;6.764;2024-01-15T09:14:29;99964.59;;;0.93
69785;BMP280;14177;51.520;6.764;2024-01-15T09:17:04;99968.81;;;0.96
69785;BMP280;14177;51.520;6.764;2024-01-15T09:19:31;99967.13;;;0.99
69785;BMP280;14177;51.520;6.764;2024-01-15T09:21:59;99961.97;;;1.05
69785;BMP280;14177;51.520;6.764;2024-01-15T09:24:26;99959.34;;;1.11
69785;BMP280;14177;51.520;6.764;2024-01-15T09:26:55;99957.63;;;1.17
69785;BMP280;14177;51.520;6.764;2024-01-15T09:29:23;99955.03;;;1.22
69785;BMP280;14177;51.520;6.764;2024-01-15T09:31:51;99961.00;;;1.22
69785;BMP280;14177;51.520;6.764;2024-01-15T09:34:19;99960.97;;;1.24
69785;BMP280;14177;51.520;6.764;2024-01-15T09:36:46;99960.97;;;1.24
69785;BMP280;14177;51.520;6.764;2024-01-15T09:39:14;99961.88;;;1.21
69785;BMP280;14177;51.520;6.764;2024-01-15T09:41:43;99960.97;;;1.27
69785;BMP280;14177;51.520;6.764;2024-01-15T09:44:12;99960.97;;;1.27
69785;BMP280;14177;51.520;6.764;2024-01-15T09:46:39;99970.38;;;1.26
69785;BMP280;14177;51.520;6.764;2024-01-15T09:49:08;99970.34;;;1.29
69785;BMP280;14177;51.520;6.764;2024-01-15T09:51:35;99964.34;;;1.32
69785;BMP280;14177;51.520;6.764;2024-01-15T09:54:04;99970.31;;;1.35
69785;BMP280;14177;51.520;6.764;2024-01-15T09:56:31;99956.66;;;1.36
69785;BMP280;14177;51.520;6.764;2024-01-15T09:59:01;99961.78;;;1.36
69785;BMP280;14177;51.520;6.764;2024-01-15T10:01:40;99962.59;;;1.40
69785;BMP280;14177;51.520;6.764;2024-01-15T10:04:07;99959.19;;;1.38
69785;BMP280;14177;51.520;6.764;2024-01-15T10:06:35;99966.88;;;1.39
69785;BMP280;14177;51.520;6.764;2024-01-15T10:09:03;99966.81;;;1.45
69785;BMP280;14177;51.520;6.764;2024-01-15T10:11:30;99965.06;;;1.50
69785;BMP280;14177;51.520;6.764;2024-01-15T10:13:58;99960.78;;;1.52
69785;BMP280;14177;51.520;6.764;2024-01-15T10:16:26;99952.22;;;1.56
69785;BMP280;14177;51.520;6.764;2024-01-15T10:18:53;99962.41;;;1.62
69785;BMP280;14177;51.520;6.764;2024-01-15T10:21:20;99944.47;;;1.62
69785;BMP280;14177;51.520;6.764;2024-01-15T10:23:47;99947.03;;;1.67
69785;BMP280;14177;51.520;6.764;2024-01-15T10:26:14;99954.66;;;1.71
69785;BMP280;14177;51.520;6.764;2024-01-15T10:28:44;99960.63;;;1.75
69785;BMP280;14177;51.520;6.764;2024-01-15T10:31:12;99949.50;;;1.74
69785;BMP280;14177;51.520;6.764;2024-01-15T10:33:39;99952.09;;;1.73
69785;BMP280;14177;51.520;6.764;2024-01-15T10:36:10;99951.25;;;1.69
69785;BMP280;14177;51.520;6.764;2024-01-15T10:38:38;99950.41;;;1.67
69785;BMP280;14177;51.520;6.764;2024-01-15T10:41:05;99958.13;;;1.64
69785;BMP280;14177;51.520;6.764;2024-01-15T10:43:32;99958.97;;;1.63
69785;BMP280;14177;51.520;6.764;2024-01-15T10:46:01;99958.13;;;1.64
69785;BMP280;14177;51.520;6.764;2024-01-15T10:48:28;99947.84;;;1.67
69785;BMP280;14177;51.520;6.764;2024-01-15T10:50:58;99950.41;;;1.69
69785;BMP280;14177;51.520;6.764;2024-01-15T10:53:25;99951.22;;;1.75
69785;BMP280;14177;51.520;6.764;2024-01-15T10:55:53;99946.84;;;1.85
69785;BMP280;14177;51.520;6.764;2024-01-15T10:58:21;99963.00;;;1.90
69785;BMP280;14177;51.520;6.764;2024-01-15T11:00:51;99958.75;;;1.90
69785;BMP280;14177;51.520;6.764;2024-01-15T11:03:18;99957.91;;;1.90
69785;BMP280;14177;51.520;6.764;2024-01-15T11:05:46;99945.94;;;1.90
69785;BMP280;14177;51.520;6.764;2024-01-15T11:08:17;99964.72;;;1.92
69785;BMP280;14177;51.520;6.764;2024-01-15T11:10:48;99962.97;;;1.97
69785;BMP280;14177;51.520;6.764;2024-01-15T11:16:03;99962.97;;;1.97
69785;BMP280;14177;51.520;6.764;2024-01-15T11:18:42;99964.63;;;2.04
69785;BMP280;14177;51.520;6.764;2024-01-15T11:23:48;99955.19;;;2.06
69785;BMP280;14177;51.520;6.764;2024-01-15T11:26:44;99953.47;;;2.07
69785;BMP280;14177;51.520;6.764;2024-01-15T11:29:36;99959.50;;;2.04
69785;BMP280;14177;51.520;6.764;2024-01-15T11:32:07;99954.38;;;2.01
69785;BMP280;14177;51.520;6.764;2024-01-15T11:34:58;99964.63;;;2.01
69785;BMP280;14177;51.520;6.764;2024-01-15T11:40:24;99963.78;;;2.01
69785;BMP280;14177;51.520;6.764;2024-01-15T11:43:06;99958.63;;;2.05
69785;BMP280;14177;51.520;6.764;2024-01-15T11:45:38;99957.72;;;2.08
69785;BMP280;14177;51.520;6.764;2024-01-15T11:48:16;99966.28;;;2.07
69785;BMP280;14177;51.520;6.764;2024-01-15T11:50:50;99961.19;;;2.05
69785;BMP280;14177;51.520;6.764;2024-01-15T11:53:28;99963.75;;;2.05
69785;BMP280;14177;51.520;6.764;2024-01-15T11:56:02;99947.50;;;2.06
69785;BMP280;14177;51.520;6.764;2024-01-15T11:58:30;99957.75;;;2.06
69785;BMP280;14177;51.520;6.764;2024-01-15T12:00:58;99955.19;;;2.06
69785;BMP280;14177;51.520;6.764;2024-01-15T12:03:26;99949.22;;;2.07
69785;BMP280;14177;51.520;6.764;2024-01-15T12:05:53;99948.31;;;2.11
69785;BMP280;14177;51.520;6.764;2024-01-15T12:08:22;99947.25;;;2.30
69785;BMP280;14177;51.520;6.764;2024-01-15T12:10:50;99956.03;;;2.80
69785;BMP280;14177;51.520;6.764;2024-01-15T12:13:20;99945.50;;;3.01
69785;BMP280;14177;51.520;6.764;2024-01-15T12:15:48;99951.31;;;3.14
69785;BMP280;14177;51.520;6.764;2024-01-15T12:18:18;99950.03;;;3.42
69785;BMP280;14177;51.520;6.764;2024-01-15T12:20:46;99940.31;;;3.61
69785;BMP280;14177;51.520;6.764;2024-01-15T12:23:15;99946.50;;;3.49
69785;BMP280;14177;51.520;6.764;2024-01-15T12:25:48;99947.56;;;3.36
69785;BMP280;14177;51.520;6.764;2024-01-15T12:28:21;99946.91;;;3.22
69785;BMP280;14177;51.520;6.764;2024-01-15T12:30:52;99947.09;;;3.10
69785;BMP280;14177;51.520;6.764;2024-01-15T12:33:28;99944.69;;;2.98
69785;BMP280;14177;51.520;6.764;2024-01-15T12:36:25;99961.91;;;2.90
69785;BMP280;14177;51.520;6.764;2024-01-15T12:39:05;99965.47;;;2.80
69785;BMP280;14177;51.520;6.764;2024-01-15T12:41:58;99965.63;;;2.68
69785;BMP280;14177;51.520;6.764;2024-01-15T12:45:18;99965.69;;;2.60
69785;BMP280;14177;51.520;6.764;2024-01-15T12:47:56;99966.59;;;2.56
69785;BMP280;14177;51.520;6.764;2024-01-15T12:50:45;99974.28;;;2.56
69785;BMP280;14177;51.520;6.764;2024-01-15T12:53:26;99974.28;;;2.58
69785;BMP280;14177;51.520;6.764;2024-01-15T12:56:00;99984.53;;;2.58
69785;BMP280;14177;51.520;6.764;2024-01-15T12:58:42;99972.53;;;2.60
69785;BMP280;14177;51.520;6.764;2024-01-15T13:01:29;99985.25;;;2.69
69785;BMP280;14177;51.520;6.764;2024-01-15T13:04:30;99980.84;;;2.80
69785;BMP280;14177;51.520;6.764;2024-01-15T13:07:11;99975.72;;;2.80
69785;BMP280;14177;51.520;6.764;2024-01-15T13:09:41;99981.75;;;2.76
69785;BMP280;14177;51.520;6.764;2024-01-15T13:12:17;99976.66;;;2.73
69785;BMP280;14177;51.520;6.764;2024-01-15T13:14:46;99984.41;;;2.70
69785;BMP280;14177;51.520;6.764;2024-01-15T13:17:22;99991.31;;;2.60
69785;BMP280;14177;51.520;6.764;2024-01-15T13:19:53;99991.34;;;2.57
69785;BMP280;14177;51.520;6.764;2024-01-15T13:22:35;100001.69;;;2.53
69785;BMP280;14177;51.520;6.764;2024-01-15T13:25:18;99992.28;;;2.53
69785;BMP280;14177;51.520;6.764;2024-01-15T13:27:57;99976.94;;;2.50
69785;BMP280;14177;51.520;6.764;2024-01-15T13:30:32;99983.72;;;2.53
69785;BMP280;14177;51.520;6.764;2024-01-15T13:33:06;99986.25;;;2.56
69785;BMP280;14177;51.520;6.764;2024-01-15T13:35:56;99981.97;;;2.56
69785;BMP280;14177;51.520;6.764;2024-01-15T13:38:45;99987.03;;;2.62
69785;BMP280;14177;51.520;6.764;2024-01-15T13:41:14;99984.44;;;2.65
69785;BMP280;14177;51.520;6.764;2024-01-15T13:43:50;99999.81;;;2.67
69785;BMP280;14177;51.520;6.764;2024-01-15T13:46:25;99997.25;;;2.67
69785;BMP280;14177;51.520;6.764;2024-01-15T13:49:02;99992.13;;;2.65
69785;BMP280;14177;51.520;6.764;2024-01-15T13:52:14;100003.28;;;2.63
69785;BMP280;14177;51.520;6.764;2024-01-15T13:55:16;100005.06;;;2.55
69785;BMP280;14177;51.520;6.764;2024-01-15T13:58:11;100013.66;;;2.51
69785;BMP280;14177;51.520;6.764;2024-01-15T14:00:45;100023.16;;;2.43
69785;BMP280;14177;51.520;6.764;2024-01-15T14:03:12;100012.09;;;2.38
69785;BMP280;14177;51.520;6.764;2024-01-15T14:05:39;100033.47;;;2.34
69785;BMP280;14177;51.520;6.764;2024-01-15T14:08:06;100030.13;;;2.31
69785;BMP280;14177;51.520;6.764;2024-01-15T14:10:34;100041.25;;;2.25
69785;BMP280;14177;51.520;6.764;2024-01-15T14:13:01;100044.69;;;2.24
69785;BMP280;14177;51.520;6.764;2024-01-15T14:15:29;100041.28;;;2.22
69785;BMP280;14177;51.520;6.764;2024-01-15T14:17:56;100055.78;;;2.23
69785;BMP280;14177;51.520;6.764;2024-01-15T14:20:25;100044.66;;;2.27
69785;BMP280;14177;51.520;6.764;2024-01-15T14:22:52;100051.47;;;2.28
69785;BMP280;14177;51.520;6.764;2024-01-15T14:25:19;100048.91;;;2.28
69785;BMP280;14177;51.520;6.764;2024-01-15T14:27:47;100053.16;;;2.32
69785;BMP280;14177;51.520;6.764;2024-01-15T14:30:14;100051.44;;;2.31
69785;BMP280;14177;51.520;6.764;2024-01-15T14:32:43;100052.28;;;2.33
69785;BMP280;14177;51.520;6.764;2024-01-15T14:35:10;100060.84;;;2.34
69785;BMP280;14177;51.520;6.764;2024-01-15T14:37:38;100060.78;;;2.38